BWA652 KPIT-MDPP
Flight info
| Callsign | BWA652 |
|---|---|
| Flight time | N/A |
| Altitude | 39000 |
| Route | CKB DCT LYH DCT TINKK/N0437F380 DCT DIZNY/N0439F390 DCT TROUT DCT SLEMA DCT STERR DCT EGANN DCT SEKAR SEKAR3S |
| Aircraft | B736/M-SDE2E3FGHIRWXY/LB1 |
Departure
| Time | 2026-04-27 23:50 |
|---|---|
| Airport | Pittsburgh International Airport (KPIT) |
Arrival
| Time | N/A |
|---|---|
| Airport | Gregorio Luperon International Airport (MDPP) |
| Time | Latitude | Longitude | Altitude | Speed | Heading |
|---|---|---|---|---|---|
| 2026-04-27 23:26 | 40.49359 | -80.24787 | 1154 ft | 0 kts | 330° |
| 2026-04-27 23:42 | 40.49353 | -80.24783 | 1153 ft | 2 kts | 330° |
| 2026-04-27 23:42 | 40.49339 | -80.24772 | 1153 ft | 2 kts | 330° |
| 2026-04-27 23:42 | 40.49325 | -80.24762 | 1150 ft | 2 kts | 330° |
| 2026-04-27 23:42 | 40.49311 | -80.24751 | 1151 ft | 2 kts | 330° |
| 2026-04-27 23:43 | 40.49301 | -80.24743 | 1151 ft | 0 kts | 329° |
| 2026-04-27 23:44 | 40.49301 | -80.24744 | 1151 ft | 2 kts | 329° |
| 2026-04-27 23:44 | 40.49305 | -80.24763 | 1151 ft | 2 kts | 261° |
| 2026-04-27 23:45 | 40.49301 | -80.24771 | 1152 ft | 0 kts | 232° |
| 2026-04-27 23:46 | 40.49271 | -80.24782 | 1151 ft | 8 kts | 175° |
| 2026-04-27 23:46 | 40.49197 | -80.24774 | 1149 ft | 13 kts | 181° |
| 2026-04-27 23:46 | 40.49104 | -80.24778 | 1148 ft | 10 kts | 182° |
| 2026-04-27 23:47 | 40.49071 | -80.24779 | 1147 ft | 0 kts | 181° |
| 2026-04-27 23:48 | 40.49043 | -80.24779 | 1148 ft | 7 kts | 180° |
| 2026-04-27 23:48 | 40.48994 | -80.24757 | 1149 ft | 8 kts | 115° |
| 2026-04-27 23:49 | 40.48990 | -80.24678 | 1149 ft | 13 kts | 91° |
| 2026-04-27 23:49 | 40.48979 | -80.24251 | 1149 ft | 87 kts | 92° |
| 2026-04-27 23:49 | 40.48946 | -80.23134 | 1147 ft | 156 kts | 93° |
| 2026-04-27 23:49 | 40.48889 | -80.21599 | 1570 ft | 182 kts | 93° |
| 2026-04-27 23:50 | 40.48801 | -80.19797 | 2178 ft | 201 kts | 103° |
| 2026-04-27 23:50 | 40.48178 | -80.18286 | 3302 ft | 186 kts | 139° |
| 2026-04-27 23:50 | 40.46980 | -80.17527 | 3927 ft | 205 kts | 166° |
| 2026-04-27 23:50 | 40.45502 | -80.17177 | 4442 ft | 225 kts | 171° |
| 2026-04-27 23:51 | 40.43937 | -80.16842 | 5272 ft | 232 kts | 174° |
| 2026-04-27 23:51 | 40.42305 | -80.16818 | 6044 ft | 239 kts | 185° |
| 2026-04-27 23:51 | 40.40574 | -80.16990 | 6697 ft | 258 kts | 187° |
| 2026-04-27 23:51 | 40.38757 | -80.17201 | 7606 ft | 264 kts | 187° |
| 2026-04-27 23:52 | 40.36902 | -80.17409 | 8567 ft | 271 kts | 186° |
| 2026-04-27 23:52 | 40.35014 | -80.17608 | 9590 ft | 274 kts | 186° |
| 2026-04-27 23:52 | 40.33090 | -80.17799 | 10464 ft | 283 kts | 186° |
| 2026-04-27 23:52 | 40.31043 | -80.17996 | 10816 ft | 308 kts | 186° |
| 2026-04-27 23:53 | 40.28857 | -80.18198 | 11528 ft | 319 kts | 186° |
| 2026-04-27 23:53 | 40.26624 | -80.18397 | 12372 ft | 324 kts | 186° |
| 2026-04-27 23:53 | 40.24352 | -80.18595 | 13287 ft | 328 kts | 186° |
| 2026-04-27 23:53 | 40.22063 | -80.18791 | 14144 ft | 333 kts | 186° |
| 2026-04-27 23:54 | 40.19729 | -80.18989 | 14924 ft | 338 kts | 186° |
| 2026-04-27 23:54 | 40.17369 | -80.19188 | 15701 ft | 342 kts | 186° |
| 2026-04-27 23:54 | 40.14981 | -80.19389 | 16482 ft | 347 kts | 186° |
| 2026-04-27 23:54 | 40.12590 | -80.19590 | 17244 ft | 351 kts | 186° |
| 2026-04-27 23:55 | 40.10099 | -80.19798 | 18034 ft | 356 kts | 186° |
| 2026-04-27 23:55 | 40.07601 | -80.20007 | 18737 ft | 361 kts | 186° |
| 2026-04-27 23:55 | 40.05081 | -80.20218 | 19401 ft | 366 kts | 186° |
| 2026-04-27 23:55 | 40.02525 | -80.20431 | 20081 ft | 370 kts | 186° |
| 2026-04-27 23:56 | 39.99936 | -80.20647 | 20727 ft | 375 kts | 187° |
| 2026-04-27 23:56 | 39.97316 | -80.20866 | 21386 ft | 380 kts | 187° |
| 2026-04-27 23:56 | 39.94702 | -80.21084 | 22009 ft | 385 kts | 187° |
| 2026-04-27 23:56 | 39.91999 | -80.21309 | 22650 ft | 390 kts | 187° |
| 2026-04-27 23:57 | 39.89270 | -80.21537 | 23291 ft | 395 kts | 187° |
| 2026-04-27 23:57 | 39.86511 | -80.21766 | 23878 ft | 400 kts | 187° |
| 2026-04-27 23:57 | 39.83727 | -80.21998 | 24411 ft | 404 kts | 187° |
| 2026-04-27 23:57 | 39.80905 | -80.22231 | 24967 ft | 408 kts | 188° |
| 2026-04-27 23:58 | 39.78058 | -80.22467 | 25508 ft | 412 kts | 188° |
| 2026-04-27 23:58 | 39.75178 | -80.22705 | 26016 ft | 416 kts | 188° |
| 2026-04-27 23:58 | 39.72279 | -80.22945 | 26546 ft | 420 kts | 188° |
| 2026-04-27 23:58 | 39.69350 | -80.23187 | 27066 ft | 424 kts | 188° |
| 2026-04-27 23:59 | 39.66409 | -80.23430 | 27580 ft | 427 kts | 188° |
| 2026-04-27 23:59 | 39.63406 | -80.23678 | 28073 ft | 431 kts | 188° |
| 2026-04-27 23:59 | 39.60436 | -80.23923 | 28550 ft | 435 kts | 188° |
| 2026-04-27 23:59 | 39.57358 | -80.24176 | 29039 ft | 439 kts | 188° |
| 2026-04-28 00:00 | 39.54296 | -80.24428 | 29491 ft | 443 kts | 188° |
| 2026-04-28 00:00 | 39.51246 | -80.24679 | 29948 ft | 447 kts | 188° |
| 2026-04-28 00:00 | 39.48085 | -80.24939 | 30073 ft | 452 kts | 188° |
| 2026-04-28 00:00 | 39.44978 | -80.25193 | 30076 ft | 452 kts | 188° |
| 2026-04-28 00:01 | 39.38736 | -80.25700 | 30083 ft | 448 kts | 188° |
| 2026-04-28 00:01 | 39.32496 | -80.26212 | 30085 ft | 450 kts | 188° |
| 2026-04-28 00:02 | 39.26210 | -80.26343 | 30071 ft | 457 kts | 177° |
| 2026-04-28 00:02 | 39.20007 | -80.24203 | 30090 ft | 465 kts | 161° |
| 2026-04-28 00:03 | 39.13992 | -80.20949 | 30511 ft | 473 kts | 160° |
| 2026-04-28 00:03 | 39.11010 | -80.19308 | 31030 ft | 472 kts | 160° |
| 2026-04-28 00:03 | 39.07934 | -80.17631 | 31485 ft | 473 kts | 160° |
| 2026-04-28 00:04 | 39.04935 | -80.16015 | 31838 ft | 476 kts | 161° |
| 2026-04-28 00:04 | 38.98783 | -80.12745 | 32537 ft | 481 kts | 161° |
| 2026-04-28 00:04 | 38.95691 | -80.11113 | 33030 ft | 479 kts | 161° |
| 2026-04-28 00:05 | 38.92586 | -80.09478 | 33120 ft | 485 kts | 161° |
| 2026-04-28 00:05 | 38.86363 | -80.06206 | 33138 ft | 481 kts | 161° |
| 2026-04-28 00:06 | 38.80185 | -80.02958 | 33150 ft | 477 kts | 161° |